KRSN

Ruston Regional Airport

Ruston, Louisiana, USA
METAR KRSN 170355Z AUTO 03007G14KT 10SM OVC005 10/10 A3026 RMK AO2 T01020095
Observed Flight Rules
Oct-17 @ 03:55 UTC (2 hours ago) Instrument Flight Rules
Wind Visibility Clouds
30° at 7 knots
 Gusting to 14 knots
10 miles
  • Overcast at 500' AGL
Temperatures Readings
Current 10°C / 50°F
Dewpoint 10°C / 50°F
Humidity 100%
Altimeter 30.26" Hg
Pressure 1025 hPa
Elevation 95
METAR KRSN 170355Z AUTO 03007G14KT 10SM OVC005 10/10 A3026 RMK AO2 T01020095
Observed Flight Rules
Oct-17 @ 03:55 UTC
(2 hours ago)
IFR
Wind Visibility
30° at 7 knots
 Gusting to 14 knots
10 miles
Clouds
  • Overcast at 500' AGL
Temperature Dewpoint
10°C / 50°F 10°C / 50°F
Humidity Altimeter Pressure
100% 30.26" Hg 1025 hPa